sensor_id;sensor_type;location;lat;lon;timestamp;P1;durP1;ratioP1;P2;durP2;ratioP2
21297;SDS011;10808;48.010;11.326;2022-07-03T00:01:17;2.90;;;1.90;;
21297;SDS011;10808;48.010;11.326;2022-07-03T00:03:43;2.22;;;2.00;;
21297;SDS011;10808;48.010;11.326;2022-07-03T00:06:09;3.15;;;2.03;;
21297;SDS011;10808;48.010;11.326;2022-07-03T00:08:36;2.90;;;2.10;;
21297;SDS011;10808;48.010;11.326;2022-07-03T00:11:02;2.33;;;2.10;;
21297;SDS011;10808;48.010;11.326;2022-07-03T00:13:29;2.85;;;2.10;;
21297;SDS011;10808;48.010;11.326;2022-07-03T00:15:56;2.55;;;2.03;;
21297;SDS011;10808;48.010;11.326;2022-07-03T00:18:22;4.10;;;2.20;;
21297;SDS011;10808;48.010;11.326;2022-07-03T00:20:49;2.22;;;2.03;;
21297;SDS011;10808;48.010;11.326;2022-07-03T00:23:26;3.30;;;2.10;;
21297;SDS011;10808;48.010;11.326;2022-07-03T00:26:03;2.35;;;2.08;;
21297;SDS011;10808;48.010;11.326;2022-07-03T00:28:31;3.75;;;2.00;;
21297;SDS011;10808;48.010;11.326;2022-07-03T00:30:57;2.00;;;1.90;;
21297;SDS011;10808;48.010;11.326;2022-07-03T00:33:24;3.22;;;2.00;;
21297;SDS011;10808;48.010;11.326;2022-07-03T00:35:54;2.95;;;2.00;;
21297;SDS011;10808;48.010;11.326;2022-07-03T00:38:23;3.20;;;2.10;;
21297;SDS011;10808;48.010;11.326;2022-07-03T00:40:50;3.58;;;2.15;;
21297;SDS011;10808;48.010;11.326;2022-07-03T00:43:16;5.15;;;2.10;;
21297;SDS011;10808;48.010;11.326;2022-07-03T00:45:49;2.35;;;2.13;;
21297;SDS011;10808;48.010;11.326;2022-07-03T00:48:17;2.47;;;2.10;;
21297;SDS011;10808;48.010;11.326;2022-07-03T00:50:44;2.83;;;1.93;;
21297;SDS011;10808;48.010;11.326;2022-07-03T00:53:13;2.28;;;1.90;;
21297;SDS011;10808;48.010;11.326;2022-07-03T00:55:43;3.77;;;2.00;;
21297;SDS011;10808;48.010;11.326;2022-07-03T00:58:13;2.90;;;2.00;;
21297;SDS011;10808;48.010;11.326;2022-07-03T01:00:42;2.83;;;2.13;;
21297;SDS011;10808;48.010;11.326;2022-07-03T01:03:13;4.15;;;2.10;;
21297;SDS011;10808;48.010;11.326;2022-07-03T01:05:50;4.32;;;2.20;;
21297;SDS011;10808;48.010;11.326;2022-07-03T01:08:41;2.83;;;2.10;;
21297;SDS011;10808;48.010;11.326;2022-07-03T01:11:20;2.90;;;2.30;;
21297;SDS011;10808;48.010;11.326;2022-07-03T01:27:28;4.13;;;2.63;;
21297;SDS011;10808;48.010;11.326;2022-07-03T01:30:18;3.00;;;2.35;;
21297;SDS011;10808;48.010;11.326;2022-07-03T01:32:46;4.50;;;2.50;;
21297;SDS011;10808;48.010;11.326;2022-07-03T01:35:26;3.50;;;2.30;;
21297;SDS011;10808;48.010;11.326;2022-07-03T01:38:04;3.03;;;2.33;;
21297;SDS011;10808;48.010;11.326;2022-07-03T01:40:35;2.60;;;2.40;;
21297;SDS011;10808;48.010;11.326;2022-07-03T01:43:04;2.40;;;2.20;;
21297;SDS011;10808;48.010;11.326;2022-07-03T01:45:36;2.95;;;2.30;;
21297;SDS011;10808;48.010;11.326;2022-07-03T01:48:05;2.83;;;2.50;;
21297;SDS011;10808;48.010;11.326;2022-07-03T01:50:32;4.23;;;2.60;;
21297;SDS011;10808;48.010;11.326;2022-07-03T01:53:00;3.40;;;2.60;;
21297;SDS011;10808;48.010;11.326;2022-07-03T01:55:29;2.95;;;2.50;;
21297;SDS011;10808;48.010;11.326;2022-07-03T01:57:57;3.97;;;2.55;;
21297;SDS011;10808;48.010;11.326;2022-07-03T02:00:24;3.88;;;2.40;;
21297;SDS011;10808;48.010;11.326;2022-07-03T02:03:01;3.33;;;2.55;;
21297;SDS011;10808;48.010;11.326;2022-07-03T02:08:15;3.80;;;2.50;;
21297;SDS011;10808;48.010;11.326;2022-07-03T02:11:09;3.13;;;2.60;;
21297;SDS011;10808;48.010;11.326;2022-07-03T02:13:57;2.70;;;2.30;;
21297;SDS011;10808;48.010;11.326;2022-07-03T02:16:33;2.45;;;2.25;;
21297;SDS011;10808;48.010;11.326;2022-07-03T02:19:27;5.15;;;2.70;;
21297;SDS011;10808;48.010;11.326;2022-07-03T02:22:17;2.67;;;2.47;;
21297;SDS011;10808;48.010;11.326;2022-07-03T02:24:46;4.07;;;2.70;;
21297;SDS011;10808;48.010;11.326;2022-07-03T02:27:16;2.90;;;2.60;;
21297;SDS011;10808;48.010;11.326;2022-07-03T02:30:11;3.07;;;2.50;;
21297;SDS011;10808;48.010;11.326;2022-07-03T02:32:36;3.30;;;2.70;;
21297;SDS011;10808;48.010;11.326;2022-07-03T02:35:32;2.70;;;2.50;;
21297;SDS011;10808;48.010;11.326;2022-07-03T02:38:12;2.78;;;2.55;;
21297;SDS011;10808;48.010;11.326;2022-07-03T02:41:01;2.90;;;2.60;;
21297;SDS011;10808;48.010;11.326;2022-07-03T02:49:16;2.72;;;2.53;;
21297;SDS011;10808;48.010;11.326;2022-07-03T02:52:25;3.87;;;2.60;;
21297;SDS011;10808;48.010;11.326;2022-07-03T02:55:49;3.00;;;2.60;;
21297;SDS011;10808;48.010;11.326;2022-07-03T03:06:41;3.20;;;2.60;;
21297;SDS011;10808;48.010;11.326;2022-07-03T03:09:24;3.17;;;2.88;;
21297;SDS011;10808;48.010;11.326;2022-07-03T03:11:53;6.72;;;3.08;;
21297;SDS011;10808;48.010;11.326;2022-07-03T03:14:23;3.40;;;3.10;;
21297;SDS011;10808;48.010;11.326;2022-07-03T03:16:59;3.27;;;2.70;;
21297;SDS011;10808;48.010;11.326;2022-07-03T03:19:30;3.40;;;2.80;;
21297;SDS011;10808;48.010;11.326;2022-07-03T03:24:43;3.20;;;2.90;;
21297;SDS011;10808;48.010;11.326;2022-07-03T03:27:10;3.40;;;2.80;;
21297;SDS011;10808;48.010;11.326;2022-07-03T03:29:37;3.15;;;2.75;;
21297;SDS011;10808;48.010;11.326;2022-07-03T03:32:04;4.50;;;2.72;;
21297;SDS011;10808;48.010;11.326;2022-07-03T03:34:31;2.90;;;2.60;;
21297;SDS011;10808;48.010;11.326;2022-07-03T03:36:58;3.50;;;3.03;;
21297;SDS011;10808;48.010;11.326;2022-07-03T03:39:24;4.20;;;2.70;;
21297;SDS011;10808;48.010;11.326;2022-07-03T03:41:52;3.37;;;2.80;;
21297;SDS011;10808;48.010;11.326;2022-07-03T03:44:18;6.70;;;3.05;;
21297;SDS011;10808;48.010;11.326;2022-07-03T03:46:44;4.03;;;3.03;;
21297;SDS011;10808;48.010;11.326;2022-07-03T03:49:10;3.42;;;3.10;;
21297;SDS011;10808;48.010;11.326;2022-07-03T03:51:37;2.88;;;2.67;;
21297;SDS011;10808;48.010;11.326;2022-07-03T03:54:04;4.72;;;2.83;;
21297;SDS011;10808;48.010;11.326;2022-07-03T03:56:30;2.75;;;2.50;;
21297;SDS011;10808;48.010;11.326;2022-07-03T03:58:56;5.77;;;2.90;;
21297;SDS011;10808;48.010;11.326;2022-07-03T04:01:22;3.20;;;2.87;;
21297;SDS011;10808;48.010;11.326;2022-07-03T04:03:49;3.20;;;2.90;;
21297;SDS011;10808;48.010;11.326;2022-07-03T04:06:15;3.47;;;2.87;;
21297;SDS011;10808;48.010;11.326;2022-07-03T04:08:41;2.97;;;2.70;;
21297;SDS011;10808;48.010;11.326;2022-07-03T04:11:07;3.00;;;2.70;;
21297;SDS011;10808;48.010;11.326;2022-07-03T04:13:33;3.10;;;2.90;;
21297;SDS011;10808;48.010;11.326;2022-07-03T04:15:59;4.00;;;3.38;;
21297;SDS011;10808;48.010;11.326;2022-07-03T04:18:25;3.30;;;3.00;;
21297;SDS011;10808;48.010;11.326;2022-07-03T04:20:51;3.63;;;2.83;;
21297;SDS011;10808;48.010;11.326;2022-07-03T04:23:17;2.90;;;2.67;;
21297;SDS011;10808;48.010;11.326;2022-07-03T04:25:43;3.07;;;2.80;;
21297;SDS011;10808;48.010;11.326;2022-07-03T04:28:10;3.00;;;2.80;;
21297;SDS011;10808;48.010;11.326;2022-07-03T04:30:36;3.92;;;2.80;;
21297;SDS011;10808;48.010;11.326;2022-07-03T04:33:03;3.10;;;2.80;;
21297;SDS011;10808;48.010;11.326;2022-07-03T04:35:29;3.22;;;2.50;;
21297;SDS011;10808;48.010;11.326;2022-07-03T04:37:55;2.80;;;2.60;;
21297;SDS011;10808;48.010;11.326;2022-07-03T04:40:21;2.80;;;2.60;;
21297;SDS011;10808;48.010;11.326;2022-07-03T04:42:47;2.95;;;2.70;;
21297;SDS011;10808;48.010;11.326;2022-07-03T04:45:13;3.93;;;2.60;;
21297;SDS011;10808;48.010;11.326;2022-07-03T04:47:40;2.80;;;2.60;;
21297;SDS011;10808;48.010;11.326;2022-07-03T04:50:06;2.85;;;2.50;;
21297;SDS011;10808;48.010;11.326;2022-07-03T04:52:33;3.67;;;2.53;;
21297;SDS011;10808;48.010;11.326;2022-07-03T04:54:59;3.35;;;2.50;;
21297;SDS011;10808;48.010;11.326;2022-07-03T04:57:25;2.90;;;2.60;;
21297;SDS011;10808;48.010;11.326;2022-07-03T04:59:51;3.40;;;2.50;;
21297;SDS011;10808;48.010;11.326;2022-07-03T05:02:17;2.60;;;2.40;;
21297;SDS011;10808;48.010;11.326;2022-07-03T05:04:43;3.43;;;2.40;;
21297;SDS011;10808;48.010;11.326;2022-07-03T05:07:09;3.13;;;2.50;;
21297;SDS011;10808;48.010;11.326;2022-07-03T05:09:35;2.85;;;2.28;;
21297;SDS011;10808;48.010;11.326;2022-07-03T05:12:02;3.22;;;2.33;;
21297;SDS011;10808;48.010;11.326;2022-07-03T05:14:28;3.03;;;2.50;;
21297;SDS011;10808;48.010;11.326;2022-07-03T05:16:54;2.70;;;2.50;;
21297;SDS011;10808;48.010;11.326;2022-07-03T05:19:20;3.08;;;2.28;;
21297;SDS011;10808;48.010;11.326;2022-07-03T05:21:47;2.80;;;2.35;;
21297;SDS011;10808;48.010;11.326;2022-07-03T05:24:13;2.40;;;2.20;;
21297;SDS011;10808;48.010;11.326;2022-07-03T05:26:39;2.53;;;2.33;;
21297;SDS011;10808;48.010;11.326;2022-07-03T05:29:05;4.63;;;2.13;;
21297;SDS011;10808;48.010;11.326;2022-07-03T05:31:31;2.40;;;2.00;;
21297;SDS011;10808;48.010;11.326;2022-07-03T05:33:57;2.53;;;2.33;;
21297;SDS011;10808;48.010;11.326;2022-07-03T05:36:23;2.40;;;2.20;;
21297;SDS011;10808;48.010;11.326;2022-07-03T05:38:49;3.92;;;2.47;;
21297;SDS011;10808;48.010;11.326;2022-07-03T05:41:34;2.58;;;2.38;;
21297;SDS011;10808;48.010;11.326;2022-07-03T05:44:00;3.70;;;2.35;;
21297;SDS011;10808;48.010;11.326;2022-07-03T05:46:26;2.50;;;2.30;;
21297;SDS011;10808;48.010;11.326;2022-07-03T05:48:52;3.63;;;2.33;;
21297;SDS011;10808;48.010;11.326;2022-07-03T05:51:18;4.80;;;2.40;;
21297;SDS011;10808;48.010;11.326;2022-07-03T05:53:44;3.13;;;2.30;;
21297;SDS011;10808;48.010;11.326;2022-07-03T05:56:10;2.53;;;2.30;;
21297;SDS011;10808;48.010;11.326;2022-07-03T05:58:37;4.22;;;2.10;;
21297;SDS011;10808;48.010;11.326;2022-07-03T06:01:03;4.97;;;2.60;;
21297;SDS011;10808;48.010;11.326;2022-07-03T06:03:29;2.47;;;2.28;;
21297;SDS011;10808;48.010;11.326;2022-07-03T06:05:55;3.80;;;1.92;;
21297;SDS011;10808;48.010;11.326;2022-07-03T06:08:23;2.70;;;2.20;;
21297;SDS011;10808;48.010;11.326;2022-07-03T06:10:49;2.20;;;1.90;;
21297;SDS011;10808;48.010;11.326;2022-07-03T06:13:15;2.90;;;2.10;;
21297;SDS011;10808;48.010;11.326;2022-07-03T06:15:41;2.97;;;2.13;;
21297;SDS011;10808;48.010;11.326;2022-07-03T06:18:07;2.40;;;2.13;;
21297;SDS011;10808;48.010;11.326;2022-07-03T06:20:33;2.63;;;2.20;;
21297;SDS011;10808;48.010;11.326;2022-07-03T06:22:59;2.38;;;2.13;;
21297;SDS011;10808;48.010;11.326;2022-07-03T06:25:25;2.40;;;2.20;;
21297;SDS011;10808;48.010;11.326;2022-07-03T06:27:51;2.42;;;2.20;;
21297;SDS011;10808;48.010;11.326;2022-07-03T06:30:17;3.13;;;2.05;;
21297;SDS011;10808;48.010;11.326;2022-07-03T06:32:43;2.00;;;1.90;;
21297;SDS011;10808;48.010;11.326;2022-07-03T06:35:09;2.53;;;2.33;;
21297;SDS011;10808;48.010;11.326;2022-07-03T06:37:35;3.05;;;2.10;;
21297;SDS011;10808;48.010;11.326;2022-07-03T06:40:01;2.30;;;2.10;;
21297;SDS011;10808;48.010;11.326;2022-07-03T06:42:27;2.47;;;2.28;;
21297;SDS011;10808;48.010;11.326;2022-07-03T06:44:53;2.20;;;2.00;;
21297;SDS011;10808;48.010;11.326;2022-07-03T06:47:19;2.17;;;1.98;;
21297;SDS011;10808;48.010;11.326;2022-07-03T06:49:46;2.25;;;1.90;;
21297;SDS011;10808;48.010;11.326;2022-07-03T06:52:12;2.00;;;1.90;;
21297;SDS011;10808;48.010;11.326;2022-07-03T06:54:38;1.92;;;1.80;;
21297;SDS011;10808;48.010;11.326;2022-07-03T06:57:06;2.72;;;1.95;;
21297;SDS011;10808;48.010;11.326;2022-07-03T06:59:32;1.60;;;1.50;;
21297;SDS011;10808;48.010;11.326;2022-07-03T07:01:59;3.17;;;1.60;;
21297;SDS011;10808;48.010;11.326;2022-07-03T07:04:25;1.73;;;1.60;;
21297;SDS011;10808;48.010;11.326;2022-07-03T07:06:51;1.80;;;1.63;;
21297;SDS011;10808;48.010;11.326;2022-07-03T07:09:17;1.65;;;1.55;;
21297;SDS011;10808;48.010;11.326;2022-07-03T07:11:43;2.03;;;1.60;;
21297;SDS011;10808;48.010;11.326;2022-07-03T07:14:09;2.15;;;1.80;;
21297;SDS011;10808;48.010;11.326;2022-07-03T07:16:35;1.70;;;1.60;;
21297;SDS011;10808;48.010;11.326;2022-07-03T07:19:01;2.85;;;1.70;;
21297;SDS011;10808;48.010;11.326;2022-07-03T07:21:27;5.00;;;2.00;;
21297;SDS011;10808;48.010;11.326;2022-07-03T07:23:53;2.65;;;1.70;;
21297;SDS011;10808;48.010;11.326;2022-07-03T07:26:19;3.10;;;1.90;;
21297;SDS011;10808;48.010;11.326;2022-07-03T07:28:46;2.00;;;1.80;;
21297;SDS011;10808;48.010;11.326;2022-07-03T07:31:12;3.42;;;1.70;;
21297;SDS011;10808;48.010;11.326;2022-07-03T07:33:38;1.73;;;1.60;;
21297;SDS011;10808;48.010;11.326;2022-07-03T07:36:04;3.88;;;1.88;;
21297;SDS011;10808;48.010;11.326;2022-07-03T07:38:30;1.90;;;1.75;;
21297;SDS011;10808;48.010;11.326;2022-07-03T07:40:56;1.80;;;1.60;;
21297;SDS011;10808;48.010;11.326;2022-07-03T07:43:23;2.95;;;1.80;;
21297;SDS011;10808;48.010;11.326;2022-07-03T07:45:49;1.95;;;1.60;;
21297;SDS011;10808;48.010;11.326;2022-07-03T07:48:15;2.53;;;1.80;;
21297;SDS011;10808;48.010;11.326;2022-07-03T07:50:43;1.80;;;1.70;;
21297;SDS011;10808;48.010;11.326;2022-07-03T07:53:09;2.33;;;1.60;;
21297;SDS011;10808;48.010;11.326;2022-07-03T07:55:35;2.65;;;1.70;;
21297;SDS011;10808;48.010;11.326;2022-07-03T07:58:02;1.70;;;1.60;;
21297;SDS011;10808;48.010;11.326;2022-07-03T08:00:28;2.47;;;1.75;;
21297;SDS011;10808;48.010;11.326;2022-07-03T08:02:54;2.07;;;1.70;;
21297;SDS011;10808;48.010;11.326;2022-07-03T08:05:39;2.03;;;1.70;;
21297;SDS011;10808;48.010;11.326;2022-07-03T08:08:09;1.80;;;1.70;;
21297;SDS011;10808;48.010;11.326;2022-07-03T08:13:10;1.85;;;1.73;;
21297;SDS011;10808;48.010;11.326;2022-07-03T08:15:37;1.80;;;1.70;;
21297;SDS011;10808;48.010;11.326;2022-07-03T08:18:05;3.60;;;1.60;;
21297;SDS011;10808;48.010;11.326;2022-07-03T08:20:31;2.30;;;1.75;;
21297;SDS011;10808;48.010;11.326;2022-07-03T08:22:59;1.80;;;1.70;;
21297;SDS011;10808;48.010;11.326;2022-07-03T08:25:25;2.05;;;1.50;;
21297;SDS011;10808;48.010;11.326;2022-07-03T08:27:52;1.92;;;1.73;;
21297;SDS011;10808;48.010;11.326;2022-07-03T08:30:18;1.70;;;1.50;;
21297;SDS011;10808;48.010;11.326;2022-07-03T08:32:45;3.20;;;1.60;;
21297;SDS011;10808;48.010;11.326;2022-07-03T08:35:15;1.83;;;1.60;;
21297;SDS011;10808;48.010;11.326;2022-07-03T08:37:41;2.35;;;1.40;;
21297;SDS011;10808;48.010;11.326;2022-07-03T08:40:09;2.08;;;1.60;;
21297;SDS011;10808;48.010;11.326;2022-07-03T08:42:37;1.58;;;1.45;;
21297;SDS011;10808;48.010;11.326;2022-07-03T08:45:06;1.85;;;1.40;;
21297;SDS011;10808;48.010;11.326;2022-07-03T08:47:33;1.67;;;1.33;;
21297;SDS011;10808;48.010;11.326;2022-07-03T08:50:01;1.60;;;1.40;;
21297;SDS011;10808;48.010;11.326;2022-07-03T08:52:28;2.15;;;1.50;;
21297;SDS011;10808;48.010;11.326;2022-07-03T08:54:56;3.17;;;1.50;;
21297;SDS011;10808;48.010;11.326;2022-07-03T08:57:22;2.70;;;1.40;;
21297;SDS011;10808;48.010;11.326;2022-07-03T08:59:51;1.60;;;1.50;;
21297;SDS011;10808;48.010;11.326;2022-07-03T09:02:18;3.00;;;1.50;;
21297;SDS011;10808;48.010;11.326;2022-07-03T09:04:45;1.95;;;1.40;;
21297;SDS011;10808;48.010;11.326;2022-07-03T09:07:13;1.30;;;1.20;;
21297;SDS011;10808;48.010;11.326;2022-07-03T09:09:39;4.80;;;1.40;;
21297;SDS011;10808;48.010;11.326;2022-07-03T09:12:06;3.15;;;1.42;;
21297;SDS011;10808;48.010;11.326;2022-07-03T09:14:32;2.05;;;1.40;;
21297;SDS011;10808;48.010;11.326;2022-07-03T09:16:58;1.90;;;1.40;;
21297;SDS011;10808;48.010;11.326;2022-07-03T09:19:44;2.17;;;1.33;;
21297;SDS011;10808;48.010;11.326;2022-07-03T09:22:19;1.30;;;1.20;;
21297;SDS011;10808;48.010;11.326;2022-07-03T09:24:48;1.42;;;1.30;;
21297;SDS011;10808;48.010;11.326;2022-07-03T09:27:19;3.90;;;1.40;;
21297;SDS011;10808;48.010;11.326;2022-07-03T09:29:56;1.48;;;1.38;;
21297;SDS011;10808;48.010;11.326;2022-07-03T09:37:56;3.03;;;1.20;;
21297;SDS011;10808;48.010;11.326;2022-07-03T09:40:45;2.50;;;1.13;;
21297;SDS011;10808;48.010;11.326;2022-07-03T09:43:30;1.23;;;1.10;;
21297;SDS011;10808;48.010;11.326;2022-07-03T09:45:57;1.30;;;1.07;;
21297;SDS011;10808;48.010;11.326;2022-07-03T09:50:55;1.10;;;1.00;;
21297;SDS011;10808;48.010;11.326;2022-07-03T09:56:33;1.30;;;1.20;;
21297;SDS011;10808;48.010;11.326;2022-07-03T10:01:33;2.37;;;1.07;;
21297;SDS011;10808;48.010;11.326;2022-07-03T10:04:10;3.10;;;1.02;;
21297;SDS011;10808;48.010;11.326;2022-07-03T10:06:50;0.95;;;0.93;;
21297;SDS011;10808;48.010;11.326;2022-07-03T10:09:27;1.15;;;1.10;;
21297;SDS011;10808;48.010;11.326;2022-07-03T10:12:01;1.05;;;1.00;;
21297;SDS011;10808;48.010;11.326;2022-07-03T10:14:29;1.33;;;1.05;;
21297;SDS011;10808;48.010;11.326;2022-07-03T10:16:56;0.90;;;0.90;;
21297;SDS011;10808;48.010;11.326;2022-07-03T10:19:27;1.33;;;0.95;;
21297;SDS011;10808;48.010;11.326;2022-07-03T10:21:56;0.80;;;0.80;;
21297;SDS011;10808;48.010;11.326;2022-07-03T10:24:27;2.10;;;1.10;;
21297;SDS011;10808;48.010;11.326;2022-07-03T10:26:55;1.40;;;0.90;;
21297;SDS011;10808;48.010;11.326;2022-07-03T10:29:23;0.93;;;0.80;;
21297;SDS011;10808;48.010;11.326;2022-07-03T10:31:51;1.02;;;0.93;;
21297;SDS011;10808;48.010;11.326;2022-07-03T10:34:21;5.15;;;1.00;;
21297;SDS011;10808;48.010;11.326;2022-07-03T10:36:50;0.98;;;0.88;;
21297;SDS011;10808;48.010;11.326;2022-07-03T10:39:20;1.33;;;1.10;;
21297;SDS011;10808;48.010;11.326;2022-07-03T10:41:55;1.00;;;0.80;;
21297;SDS011;10808;48.010;11.326;2022-07-03T10:44:51;1.20;;;1.00;;
21297;SDS011;10808;48.010;11.326;2022-07-03T10:47:39;1.40;;;1.08;;
21297;SDS011;10808;48.010;11.326;2022-07-03T10:50:13;1.25;;;1.00;;
21297;SDS011;10808;48.010;11.326;2022-07-03T10:52:49;1.02;;;0.80;;
21297;SDS011;10808;48.010;11.326;2022-07-03T10:55:16;0.98;;;0.70;;
21297;SDS011;10808;48.010;11.326;2022-07-03T11:00:54;1.05;;;0.95;;
21297;SDS011;10808;48.010;11.326;2022-07-03T11:06:20;0.90;;;0.90;;
21297;SDS011;10808;48.010;11.326;2022-07-03T11:09:04;0.83;;;0.80;;
21297;SDS011;10808;48.010;11.326;2022-07-03T11:11:34;0.80;;;0.80;;
21297;SDS011;10808;48.010;11.326;2022-07-03T11:14:22;0.90;;;0.90;;
21297;SDS011;10808;48.010;11.326;2022-07-03T11:19:44;1.23;;;0.90;;
21297;SDS011;10808;48.010;11.326;2022-07-03T11:22:33;2.20;;;0.90;;
21297;SDS011;10808;48.010;11.326;2022-07-03T11:25:12;1.25;;;1.00;;
21297;SDS011;10808;48.010;11.326;2022-07-03T11:27:39;1.13;;;1.03;;
21297;SDS011;10808;48.010;11.326;2022-07-03T11:30:06;3.17;;;1.10;;
21297;SDS011;10808;48.010;11.326;2022-07-03T11:32:45;1.60;;;1.10;;
21297;SDS011;10808;48.010;11.326;2022-07-03T11:38:14;2.70;;;1.20;;
21297;SDS011;10808;48.010;11.326;2022-07-03T11:40:41;0.85;;;0.85;;
21297;SDS011;10808;48.010;11.326;2022-07-03T11:43:10;1.03;;;0.93;;
21297;SDS011;10808;48.010;11.326;2022-07-03T11:45:38;2.90;;;1.00;;
21297;SDS011;10808;48.010;11.326;2022-07-03T11:48:06;1.63;;;0.90;;
21297;SDS011;10808;48.010;11.326;2022-07-03T11:51:00;1.70;;;1.00;;
21297;SDS011;10808;48.010;11.326;2022-07-03T11:53:28;1.20;;;0.90;;
21297;SDS011;10808;48.010;11.326;2022-07-03T11:56:00;2.47;;;1.00;;
21297;SDS011;10808;48.010;11.326;2022-07-03T11:58:51;1.90;;;0.90;;
21297;SDS011;10808;48.010;11.326;2022-07-03T12:03:48;1.60;;;0.80;;
21297;SDS011;10808;48.010;11.326;2022-07-03T12:06:15;1.25;;;0.95;;
21297;SDS011;10808;48.010;11.326;2022-07-03T12:08:43;1.13;;;0.80;;
21297;SDS011;10808;48.010;11.326;2022-07-03T12:11:15;1.20;;;0.90;;
21297;SDS011;10808;48.010;11.326;2022-07-03T12:13:42;1.35;;;0.90;;
21297;SDS011;10808;48.010;11.326;2022-07-03T12:16:10;2.10;;;1.00;;
21297;SDS011;10808;48.010;11.326;2022-07-03T12:21:20;1.80;;;0.90;;
21297;SDS011;10808;48.010;11.326;2022-07-03T12:23:51;2.50;;;0.82;;
21297;SDS011;10808;48.010;11.326;2022-07-03T12:26:34;1.13;;;0.90;;
21297;SDS011;10808;48.010;11.326;2022-07-03T12:29:02;1.95;;;0.90;;
21297;SDS011;10808;48.010;11.326;2022-07-03T12:31:31;1.05;;;0.95;;
21297;SDS011;10808;48.010;11.326;2022-07-03T12:33:57;1.00;;;0.90;;
21297;SDS011;10808;48.010;11.326;2022-07-03T12:36:25;0.90;;;0.80;;
21297;SDS011;10808;48.010;11.326;2022-07-03T12:38:52;1.10;;;1.00;;
21297;SDS011;10808;48.010;11.326;2022-07-03T12:41:21;1.20;;;0.80;;
21297;SDS011;10808;48.010;11.326;2022-07-03T12:43:48;5.10;;;1.30;;
21297;SDS011;10808;48.010;11.326;2022-07-03T12:48:51;1.40;;;0.90;;
21297;SDS011;10808;48.010;11.326;2022-07-03T12:54:10;2.72;;;0.98;;
21297;SDS011;10808;48.010;11.326;2022-07-03T12:56:42;1.58;;;1.30;;
21297;SDS011;10808;48.010;11.326;2022-07-03T12:59:27;1.60;;;0.90;;
21297;SDS011;10808;48.010;11.326;2022-07-03T13:02:02;1.30;;;1.00;;
21297;SDS011;10808;48.010;11.326;2022-07-03T13:04:33;1.48;;;0.90;;
21297;SDS011;10808;48.010;11.326;2022-07-03T13:07:04;1.52;;;1.00;;
21297;SDS011;10808;48.010;11.326;2022-07-03T13:09:33;2.40;;;1.20;;
21297;SDS011;10808;48.010;11.326;2022-07-03T13:12:00;2.53;;;1.40;;
21297;SDS011;10808;48.010;11.326;2022-07-03T13:14:26;2.13;;;1.35;;
21297;SDS011;10808;48.010;11.326;2022-07-03T13:16:53;2.53;;;1.42;;
21297;SDS011;10808;48.010;11.326;2022-07-03T13:19:22;1.38;;;1.20;;
21297;SDS011;10808;48.010;11.326;2022-07-03T13:21:50;1.15;;;1.00;;
21297;SDS011;10808;48.010;11.326;2022-07-03T13:24:18;1.90;;;1.02;;
21297;SDS011;10808;48.010;11.326;2022-07-03T13:26:45;2.13;;;0.93;;
21297;SDS011;10808;48.010;11.326;2022-07-03T13:29:12;1.77;;;1.10;;
21297;SDS011;10808;48.010;11.326;2022-07-03T13:31:38;3.17;;;1.80;;
21297;SDS011;10808;48.010;11.326;2022-07-03T13:34:05;2.67;;;1.15;;
21297;SDS011;10808;48.010;11.326;2022-07-03T13:36:31;2.15;;;1.30;;
21297;SDS011;10808;48.010;11.326;2022-07-03T13:38:58;1.23;;;1.00;;
21297;SDS011;10808;48.010;11.326;2022-07-03T13:41:25;2.60;;;1.10;;
21297;SDS011;10808;48.010;11.326;2022-07-03T13:43:52;2.55;;;1.30;;
21297;SDS011;10808;48.010;11.326;2022-07-03T13:46:19;1.70;;;1.20;;
21297;SDS011;10808;48.010;11.326;2022-07-03T13:48:50;1.85;;;1.35;;
21297;SDS011;10808;48.010;11.326;2022-07-03T13:51:17;1.80;;;1.20;;
21297;SDS011;10808;48.010;11.326;2022-07-03T13:53:44;1.50;;;1.30;;
21297;SDS011;10808;48.010;11.326;2022-07-03T13:56:10;3.13;;;0.98;;
21297;SDS011;10808;48.010;11.326;2022-07-03T13:58:38;1.20;;;1.10;;
21297;SDS011;10808;48.010;11.326;2022-07-03T14:01:04;1.45;;;1.10;;
21297;SDS011;10808;48.010;11.326;2022-07-03T14:03:30;1.40;;;1.20;;
21297;SDS011;10808;48.010;11.326;2022-07-03T14:05:56;1.10;;;1.00;;
21297;SDS011;10808;48.010;11.326;2022-07-03T14:08:23;8.82;;;1.38;;
21297;SDS011;10808;48.010;11.326;2022-07-03T14:10:49;2.73;;;1.10;;
21297;SDS011;10808;48.010;11.326;2022-07-03T14:13:15;1.95;;;1.20;;
21297;SDS011;10808;48.010;11.326;2022-07-03T14:15:42;1.33;;;1.05;;
21297;SDS011;10808;48.010;11.326;2022-07-03T14:18:08;1.40;;;1.08;;
21297;SDS011;10808;48.010;11.326;2022-07-03T14:20:34;3.58;;;1.25;;
21297;SDS011;10808;48.010;11.326;2022-07-03T14:23:00;1.80;;;1.10;;
21297;SDS011;10808;48.010;11.326;2022-07-03T14:25:27;1.83;;;1.50;;
21297;SDS011;10808;48.010;11.326;2022-07-03T14:27:53;1.88;;;1.25;;
21297;SDS011;10808;48.010;11.326;2022-07-03T14:30:37;1.80;;;1.10;;
21297;SDS011;10808;48.010;11.326;2022-07-03T14:33:22;1.38;;;1.27;;
21297;SDS011;10808;48.010;11.326;2022-07-03T14:35:48;1.83;;;1.20;;
21297;SDS011;10808;48.010;11.326;2022-07-03T14:38:14;1.30;;;1.10;;
21297;SDS011;10808;48.010;11.326;2022-07-03T14:40:40;1.58;;;1.17;;
21297;SDS011;10808;48.010;11.326;2022-07-03T14:43:06;1.98;;;1.15;;
21297;SDS011;10808;48.010;11.326;2022-07-03T14:45:33;2.03;;;1.20;;
21297;SDS011;10808;48.010;11.326;2022-07-03T14:47:59;1.73;;;1.20;;
21297;SDS011;10808;48.010;11.326;2022-07-03T14:50:25;1.40;;;1.08;;
21297;SDS011;10808;48.010;11.326;2022-07-03T14:52:51;2.20;;;1.20;;
21297;SDS011;10808;48.010;11.326;2022-07-03T14:55:17;2.03;;;1.20;;
21297;SDS011;10808;48.010;11.326;2022-07-03T15:00:17;3.78;;;1.30;;
21297;SDS011;10808;48.010;11.326;2022-07-03T15:05:12;3.60;;;1.27;;
21297;SDS011;10808;48.010;11.326;2022-07-03T15:07:43;1.40;;;1.10;;
21297;SDS011;10808;48.010;11.326;2022-07-03T15:10:15;1.73;;;1.25;;
21297;SDS011;10808;48.010;11.326;2022-07-03T15:12:42;2.25;;;1.30;;
21297;SDS011;10808;48.010;11.326;2022-07-03T15:15:13;1.60;;;1.20;;
21297;SDS011;10808;48.010;11.326;2022-07-03T15:17:41;2.92;;;1.20;;
21297;SDS011;10808;48.010;11.326;2022-07-03T15:20:08;1.55;;;1.30;;
21297;SDS011;10808;48.010;11.326;2022-07-03T15:22:38;2.75;;;1.30;;
21297;SDS011;10808;48.010;11.326;2022-07-03T15:25:06;1.52;;;1.27;;
21297;SDS011;10808;48.010;11.326;2022-07-03T15:27:33;1.45;;;1.30;;
21297;SDS011;10808;48.010;11.326;2022-07-03T15:30:00;3.15;;;1.40;;
21297;SDS011;10808;48.010;11.326;2022-07-03T15:32:28;4.20;;;1.40;;
21297;SDS011;10808;48.010;11.326;2022-07-03T15:34:54;2.65;;;1.10;;
21297;SDS011;10808;48.010;11.326;2022-07-03T15:40:02;1.75;;;1.30;;
21297;SDS011;10808;48.010;11.326;2022-07-03T15:50:55;1.48;;;1.27;;
21297;SDS011;10808;48.010;11.326;2022-07-03T15:53:28;2.50;;;1.40;;
21297;SDS011;10808;48.010;11.326;2022-07-03T15:56:04;5.00;;;1.48;;
21297;SDS011;10808;48.010;11.326;2022-07-03T15:58:32;2.47;;;1.40;;
21297;SDS011;10808;48.010;11.326;2022-07-03T16:01:01;5.30;;;1.63;;
21297;SDS011;10808;48.010;11.326;2022-07-03T16:04:15;3.67;;;1.48;;
21297;SDS011;10808;48.010;11.326;2022-07-03T16:06:44;2.80;;;1.40;;
21297;SDS011;10808;48.010;11.326;2022-07-03T16:09:13;3.50;;;1.40;;
21297;SDS011;10808;48.010;11.326;2022-07-03T16:11:40;1.70;;;1.60;;
21297;SDS011;10808;48.010;11.326;2022-07-03T16:14:08;2.40;;;1.60;;
21297;SDS011;10808;48.010;11.326;2022-07-03T16:16:34;4.30;;;2.00;;